createdAt,value
2023-10-01T00:00:23.556Z,33.10
2023-10-01T00:05:23.894Z,35.00
2023-10-01T00:10:22.335Z,31.70
2023-10-01T00:15:23.398Z,30.30
2023-10-01T00:20:21.685Z,25.20
2023-10-01T00:25:19.984Z,22.40
2023-10-01T00:30:21.238Z,21.80
2023-10-01T00:35:18.480Z,27.30
2023-10-01T00:40:17.787Z,22.00
2023-10-01T00:45:18.067Z,25.50
2023-10-01T00:50:16.339Z,21.30
2023-10-01T00:55:15.632Z,22.90
2023-10-01T01:00:14.896Z,22.20
2023-10-01T01:05:14.161Z,24.20
2023-10-01T01:10:14.487Z,21.70
2023-10-01T01:15:13.753Z,27.80
2023-10-01T01:20:13.980Z,20.50
2023-10-01T01:25:12.330Z,20.50
2023-10-01T01:30:11.559Z,20.10
2023-10-01T01:35:09.797Z,20.90
2023-10-01T01:40:09.067Z,19.40
2023-10-01T01:45:07.344Z,18.70
2023-10-01T01:50:07.701Z,20.10
2023-10-01T01:55:07.960Z,22.60
2023-10-01T02:00:07.211Z,19.40
2023-10-01T02:05:05.480Z,19.80
2023-10-01T02:10:06.777Z,15.20
2023-10-01T02:15:04.022Z,19.50
2023-10-01T02:20:03.288Z,17.10
2023-10-01T02:25:02.579Z,17.30
2023-10-01T02:30:02.895Z,20.60
2023-10-01T02:35:01.188Z,19.60
2023-10-01T02:40:01.476Z,19.60
2023-10-01T02:45:00.767Z,16.80
2023-10-01T02:50:01.015Z,16.80
2023-10-01T02:54:59.297Z,15.00
2023-10-01T02:59:58.550Z,15.00
2023-10-01T03:04:56.832Z,16.30
2023-10-01T03:09:57.078Z,16.10
2023-10-01T03:14:57.295Z,18.00
2023-10-01T03:19:54.535Z,17.60
2023-10-01T03:24:53.811Z,15.70
2023-10-01T03:29:53.067Z,17.10
2023-10-01T03:34:52.341Z,16.00
2023-10-01T03:39:51.621Z,18.00
2023-10-01T03:44:50.898Z,15.20
2023-10-01T03:49:51.178Z,15.80
2023-10-01T03:54:50.461Z,15.50
2023-10-01T03:59:49.756Z,20.80
2023-10-01T04:04:48.075Z,15.10
2023-10-01T04:09:48.352Z,13.90
2023-10-01T04:14:46.620Z,15.40
2023-10-01T04:19:46.978Z,16.70
2023-10-01T04:24:46.222Z,19.40
2023-10-01T04:29:44.500Z,15.10
2023-10-01T04:34:44.755Z,15.40
2023-10-01T04:39:42.975Z,14.80
2023-10-01T04:44:44.236Z,15.00
2023-10-01T04:49:43.946Z,14.00
2023-10-01T04:54:40.865Z,15.90
2023-10-01T04:59:41.133Z,13.80
2023-10-01T05:04:40.557Z,14.70
2023-10-01T05:09:37.707Z,11.90
2023-10-01T05:14:38.055Z,13.70
2023-10-01T05:19:41.384Z,14.70
2023-10-01T05:24:36.427Z,14.40
2023-10-01T05:29:35.697Z,14.90
2023-10-01T05:34:36.026Z,13.70
2023-10-01T05:39:36.036Z,14.10
2023-10-01T05:44:34.496Z,13.00
2023-10-01T05:49:33.782Z,13.30
2023-10-01T05:54:34.656Z,13.90
2023-10-01T05:59:32.237Z,16.20
2023-10-01T06:04:31.544Z,14.40
2023-10-01T06:09:29.813Z,14.70
2023-10-01T06:14:30.106Z,16.80
2023-10-01T06:19:29.388Z,16.90
2023-10-01T06:24:29.624Z,16.20
2023-10-01T06:29:26.870Z,15.40
2023-10-01T06:34:26.626Z,14.90
2023-10-01T06:39:25.316Z,13.80
2023-10-01T06:44:24.583Z,16.70
2023-10-01T06:49:24.957Z,16.10
2023-10-01T06:54:24.023Z,16.30
2023-10-01T06:59:22.305Z,17.30
2023-10-01T07:04:22.620Z,17.40
2023-10-01T07:09:20.836Z,15.40
2023-10-01T07:14:20.147Z,14.50
2023-10-01T07:19:19.419Z,16.10
2023-10-01T07:24:18.667Z,16.80
2023-10-01T07:29:19.937Z,15.70
2023-10-01T07:34:17.252Z,15.70
2023-10-01T07:39:17.359Z,18.40
2023-10-01T07:44:15.660Z,16.10
2023-10-01T07:49:15.037Z,17.00
2023-10-01T07:54:13.249Z,16.10
2023-10-01T07:59:13.565Z,13.00
2023-10-01T08:04:12.905Z,14.20
2023-10-01T08:09:12.136Z,11.50
2023-10-01T08:14:13.431Z,13.60
2023-10-01T08:19:12.706Z,11.10
2023-10-01T08:24:09.933Z,14.70
2023-10-01T08:29:10.257Z,10.00
2023-10-01T08:34:08.598Z,12.00
2023-10-01T08:39:07.835Z,15.80
2023-10-01T08:44:17.212Z,13.40
2023-10-01T08:49:06.423Z,12.60
2023-10-01T08:54:05.660Z,12.20
2023-10-01T08:59:05.941Z,15.70
2023-10-01T09:04:04.254Z,18.00
2023-10-01T09:09:03.525Z,10.90
2023-10-01T09:14:02.791Z,18.30
2023-10-01T09:19:03.060Z,20.10
2023-10-01T09:24:01.309Z,19.10
2023-10-01T09:29:00.823Z,22.90
2023-10-01T09:34:00.822Z,22.60
2023-10-01T09:38:59.467Z,21.90
2023-10-01T09:43:58.431Z,23.60
2023-10-01T09:48:58.712Z,29.30
2023-10-01T09:53:57.017Z,21.20
2023-10-01T09:58:56.236Z,21.00
2023-10-01T10:03:54.542Z,17.50
2023-10-01T10:08:54.861Z,89.40
2023-10-01T10:13:54.180Z,63.90
2023-10-01T10:18:53.451Z,20.70
2023-10-01T10:23:52.712Z,43.10
2023-10-01T10:28:52.982Z,19.70
2023-10-01T10:33:51.358Z,20.60
2023-10-01T10:38:50.424Z,21.30
2023-10-01T10:43:49.833Z,19.20
2023-10-01T10:48:49.919Z,19.80
2023-10-01T10:53:48.150Z,27.20
2023-10-01T10:58:47.459Z,30.20
2023-10-01T11:03:50.818Z,25.80
2023-10-01T11:08:47.837Z,20.20
2023-10-01T11:13:45.134Z,23.50
2023-10-01T11:18:44.394Z,20.80
2023-10-01T11:23:43.700Z,22.10
2023-10-01T11:28:43.281Z,17.80
2023-10-01T11:33:44.194Z,20.90
2023-10-01T11:38:41.447Z,19.00
2023-10-01T11:43:41.810Z,21.30
2023-10-01T11:48:41.900Z,19.50
2023-10-01T11:53:41.157Z,18.40
2023-10-01T11:58:38.556Z,21.10
2023-10-01T12:03:38.746Z,22.30
2023-10-01T12:08:36.876Z,21.00
2023-10-01T12:13:38.147Z,19.90
2023-10-01T12:18:35.344Z,19.10
2023-10-01T12:23:35.621Z,19.50
2023-10-01T12:28:33.929Z,17.00
2023-10-01T12:33:34.159Z,22.30
2023-10-01T12:38:31.432Z,20.50
2023-10-01T12:43:33.716Z,22.50
2023-10-01T12:48:30.988Z,19.90
2023-10-01T12:53:30.234Z,21.20
2023-10-01T12:58:29.508Z,21.50
2023-10-01T13:03:29.835Z,18.00
2023-10-01T13:08:28.065Z,20.40
2023-10-01T13:13:28.375Z,22.70
2023-10-01T13:18:27.659Z,19.30
2023-10-01T13:23:26.984Z,18.20
2023-10-01T13:28:25.448Z,16.10
2023-10-01T13:33:24.712Z,19.70
2023-10-01T13:38:24.852Z,19.80
2023-10-01T13:43:23.235Z,18.70
2023-10-01T13:48:24.380Z,19.60
2023-10-01T13:53:22.416Z,18.50
2023-10-01T13:58:20.726Z,18.20
2023-10-01T14:03:19.985Z,16.80
2023-10-01T14:08:19.400Z,16.50
2023-10-01T14:13:17.597Z,17.20
2023-10-01T14:18:30.521Z,17.60
2023-10-01T14:23:17.878Z,16.10
2023-10-01T14:28:16.193Z,19.00
2023-10-01T14:33:14.798Z,16.40
2023-10-01T14:38:16.817Z,19.30
2023-10-01T14:43:13.055Z,17.30
2023-10-01T14:48:14.325Z,19.10
2023-10-01T14:53:12.515Z,18.30
2023-10-01T14:58:12.988Z,18.50
2023-10-01T15:03:09.937Z,17.60
2023-10-01T15:08:09.172Z,17.00
2023-10-01T15:13:19.968Z,20.00
2023-10-01T15:18:08.635Z,128.60
2023-10-01T15:23:08.712Z,34.40
2023-10-01T15:28:06.965Z,46.40
2023-10-01T15:33:06.336Z,55.50
2023-10-01T15:38:07.509Z,29.20
2023-10-01T15:43:04.781Z,20.30
2023-10-01T15:48:03.129Z,21.70
2023-10-01T15:53:03.430Z,18.00
2023-10-01T15:58:04.733Z,19.20
2023-10-01T16:03:03.220Z,20.70
2023-10-01T16:08:03.249Z,18.80
2023-10-01T16:13:01.581Z,17.80
2023-10-01T16:17:59.893Z,20.30
2023-10-01T16:23:00.297Z,20.90
2023-10-01T16:27:59.480Z,19.30
2023-10-01T16:32:58.714Z,20.30
2023-10-01T16:37:56.853Z,20.60
2023-10-01T16:42:55.932Z,17.90
2023-10-01T16:47:55.333Z,18.70
2023-10-01T16:52:54.426Z,19.30
2023-10-01T16:57:53.851Z,19.00
2023-10-01T17:02:53.154Z,22.80
2023-10-01T17:07:51.516Z,21.20
2023-10-01T17:12:51.749Z,17.10
2023-10-01T17:17:52.143Z,17.20
2023-10-01T17:22:50.244Z,18.30
2023-10-01T17:27:49.498Z,35.40
2023-10-01T17:32:48.680Z,23.40
2023-10-01T17:37:47.243Z,18.90
2023-10-01T17:42:47.259Z,19.00
2023-10-01T17:47:46.580Z,18.80
2023-10-01T17:52:48.980Z,18.50
2023-10-01T17:57:48.223Z,20.60
2023-10-01T18:02:45.453Z,17.00
2023-10-01T18:07:43.591Z,20.60
2023-10-01T18:12:42.985Z,23.30
2023-10-01T18:17:42.097Z,24.30
2023-10-01T18:22:41.414Z,26.40
2023-10-01T18:27:41.698Z,24.80
2023-10-01T18:32:39.989Z,23.80
2023-10-01T18:37:39.330Z,31.20
2023-10-01T18:42:39.450Z,37.30
2023-10-01T18:47:38.875Z,28.40
2023-10-01T18:52:37.966Z,33.00
2023-10-01T18:57:36.167Z,38.30
2023-10-01T19:02:36.256Z,46.00
2023-10-01T19:07:34.541Z,49.10
2023-10-01T19:12:33.821Z,49.20
2023-10-01T19:17:34.926Z,57.20
2023-10-01T19:22:45.595Z,61.30
2023-10-01T19:27:32.570Z,61.50
2023-10-01T19:32:30.934Z,62.10
2023-10-01T19:37:30.015Z,84.30
2023-10-01T19:42:31.294Z,85.70
2023-10-01T19:47:28.580Z,134.50
2023-10-01T19:52:28.708Z,89.90
2023-10-01T19:57:26.945Z,103.70
2023-10-01T20:02:27.310Z,75.10
2023-10-01T20:07:25.365Z,82.40
2023-10-01T20:12:24.373Z,85.20
2023-10-01T20:17:23.542Z,242.40
2023-10-01T20:22:22.507Z,126.70
2023-10-01T20:27:22.737Z,100.50
2023-10-01T20:32:22.166Z,112.20
2023-10-01T20:37:21.364Z,110.10
2023-10-01T20:42:20.357Z,92.60
2023-10-01T20:47:18.368Z,75.60
2023-10-01T20:52:17.899Z,72.30
2023-10-01T20:57:19.245Z,71.20
2023-10-01T21:02:16.542Z,76.20
2023-10-01T21:07:15.739Z,74.10
2023-10-01T21:12:16.801Z,74.00
2023-10-01T21:17:14.140Z,74.30
2023-10-01T21:22:14.216Z,75.50
2023-10-01T21:27:12.455Z,77.70
2023-10-01T21:32:11.831Z,76.70
2023-10-01T21:37:11.931Z,73.30
2023-10-01T21:42:11.219Z,73.70
2023-10-01T21:47:11.528Z,86.30
2023-10-01T21:52:08.764Z,230.20
2023-10-01T21:57:08.025Z,206.60
2023-10-01T22:02:07.354Z,190.50
2023-10-01T22:07:06.560Z,186.10
2023-10-01T22:12:06.619Z,365.90
2023-10-01T22:17:06.998Z,89.10
2023-10-01T22:22:06.049Z,109.70
2023-10-01T22:27:02.316Z,88.50
2023-10-01T22:32:02.709Z,130.60
2023-10-01T22:37:01.918Z,124.40
2023-10-01T22:42:02.014Z,119.60
2023-10-01T22:47:00.373Z,110.60
2023-10-01T22:51:59.484Z,109.80
2023-10-01T22:56:58.998Z,104.20
2023-10-01T23:01:59.133Z,109.00
2023-10-01T23:06:58.239Z,99.30
2023-10-01T23:11:56.465Z,96.80
2023-10-01T23:16:55.752Z,92.90
2023-10-01T23:21:57.992Z,85.50
2023-10-01T23:26:54.239Z,86.90
2023-10-01T23:31:54.598Z,81.60
2023-10-01T23:36:54.736Z,82.10
2023-10-01T23:41:52.108Z,86.60
2023-10-01T23:46:51.237Z,88.00
2023-10-01T23:51:50.546Z,78.70
2023-10-01T23:56:49.778Z,79.70
